sensor_id;sensor_type;location;lat;lon;timestamp;temperature;humidity
24152;DHT22;12311;50.866;4.332;2023-07-31T00:00:32;17.10;99.90
24152;DHT22;12311;50.866;4.332;2023-07-31T00:02:57;17.10;99.90
24152;DHT22;12311;50.866;4.332;2023-07-31T00:05:23;17.10;99.90
24152;DHT22;12311;50.866;4.332;2023-07-31T00:07:48;17.20;99.90
24152;DHT22;12311;50.866;4.332;2023-07-31T00:10:14;17.20;99.90
24152;DHT22;12311;50.866;4.332;2023-07-31T00:12:44;17.30;99.90
24152;DHT22;12311;50.866;4.332;2023-07-31T00:15:11;17.30;99.90
24152;DHT22;12311;50.866;4.332;2023-07-31T00:17:37;17.30;99.90
24152;DHT22;12311;50.866;4.332;2023-07-31T00:20:03;17.30;99.90
24152;DHT22;12311;50.866;4.332;2023-07-31T00:22:28;17.30;99.90
24152;DHT22;12311;50.866;4.332;2023-07-31T00:24:55;17.20;99.90
24152;DHT22;12311;50.866;4.332;2023-07-31T00:27:21;17.20;99.90
24152;DHT22;12311;50.866;4.332;2023-07-31T00:29:46;17.20;99.90
24152;DHT22;12311;50.866;4.332;2023-07-31T00:32:12;17.20;99.90
24152;DHT22;12311;50.866;4.332;2023-07-31T00:34:37;17.20;99.90
24152;DHT22;12311;50.866;4.332;2023-07-31T00:37:03;17.20;99.90
24152;DHT22;12311;50.866;4.332;2023-07-31T00:39:30;17.30;99.90
24152;DHT22;12311;50.866;4.332;2023-07-31T00:41:56;17.30;99.90
24152;DHT22;12311;50.866;4.332;2023-07-31T00:44:22;17.30;99.90
24152;DHT22;12311;50.866;4.332;2023-07-31T00:46:48;17.30;99.90
24152;DHT22;12311;50.866;4.332;2023-07-31T00:49:13;17.20;99.90
24152;DHT22;12311;50.866;4.332;2023-07-31T00:51:39;17.30;99.90
24152;DHT22;12311;50.866;4.332;2023-07-31T00:54:06;17.30;99.90
24152;DHT22;12311;50.866;4.332;2023-07-31T00:56:32;17.30;99.90
24152;DHT22;12311;50.866;4.332;2023-07-31T00:58:58;17.40;99.90
24152;DHT22;12311;50.866;4.332;2023-07-31T01:01:24;17.40;99.90
24152;DHT22;12311;50.866;4.332;2023-07-31T01:03:51;17.40;99.90
24152;DHT22;12311;50.866;4.332;2023-07-31T01:11:30;17.50;99.90
24152;DHT22;12311;50.866;4.332;2023-07-31T01:13:57;17.50;99.90
24152;DHT22;12311;50.866;4.332;2023-07-31T01:16:24;17.50;99.90
24152;DHT22;12311;50.866;4.332;2023-07-31T01:18:50;17.40;99.90
24152;DHT22;12311;50.866;4.332;2023-07-31T01:21:25;17.40;99.90
24152;DHT22;12311;50.866;4.332;2023-07-31T01:26:43;17.50;99.90
24152;DHT22;12311;50.866;4.332;2023-07-31T01:29:25;17.40;99.90
24152;DHT22;12311;50.866;4.332;2023-07-31T01:31:56;17.40;99.90
24152;DHT22;12311;50.866;4.332;2023-07-31T01:34:28;17.40;99.90
24152;DHT22;12311;50.866;4.332;2023-07-31T01:36:53;17.40;99.90
24152;DHT22;12311;50.866;4.332;2023-07-31T01:39:20;17.40;99.90
24152;DHT22;12311;50.866;4.332;2023-07-31T01:41:46;17.40;99.90
24152;DHT22;12311;50.866;4.332;2023-07-31T01:44:12;17.40;99.90
24152;DHT22;12311;50.866;4.332;2023-07-31T01:46:37;17.40;99.90
24152;DHT22;12311;50.866;4.332;2023-07-31T01:49:03;17.40;99.90
24152;DHT22;12311;50.866;4.332;2023-07-31T01:51:31;17.40;99.90
24152;DHT22;12311;50.866;4.332;2023-07-31T01:54:02;17.50;99.90
24152;DHT22;12311;50.866;4.332;2023-07-31T01:56:27;17.50;99.90
24152;DHT22;12311;50.866;4.332;2023-07-31T01:58:53;17.50;99.90
24152;DHT22;12311;50.866;4.332;2023-07-31T02:01:19;17.60;99.90
24152;DHT22;12311;50.866;4.332;2023-07-31T02:03:45;17.60;99.90
24152;DHT22;12311;50.866;4.332;2023-07-31T02:06:10;17.50;99.90
24152;DHT22;12311;50.866;4.332;2023-07-31T02:08:36;17.50;99.90
24152;DHT22;12311;50.866;4.332;2023-07-31T02:11:02;17.50;99.90
24152;DHT22;12311;50.866;4.332;2023-07-31T02:13:27;17.60;99.90
24152;DHT22;12311;50.866;4.332;2023-07-31T02:15:53;17.50;99.90
24152;DHT22;12311;50.866;4.332;2023-07-31T02:18:19;17.60;99.90
24152;DHT22;12311;50.866;4.332;2023-07-31T02:20:49;17.50;99.90
24152;DHT22;12311;50.866;4.332;2023-07-31T02:23:15;17.50;99.90
24152;DHT22;12311;50.866;4.332;2023-07-31T02:25:41;17.50;99.90
24152;DHT22;12311;50.866;4.332;2023-07-31T02:28:06;17.50;99.90
24152;DHT22;12311;50.866;4.332;2023-07-31T02:30:32;17.60;99.90
24152;DHT22;12311;50.866;4.332;2023-07-31T02:32:58;17.60;99.90
24152;DHT22;12311;50.866;4.332;2023-07-31T02:35:23;17.60;99.90
24152;DHT22;12311;50.866;4.332;2023-07-31T02:37:49;17.60;99.90
24152;DHT22;12311;50.866;4.332;2023-07-31T02:40:15;17.50;99.90
24152;DHT22;12311;50.866;4.332;2023-07-31T02:42:40;17.50;99.90
24152;DHT22;12311;50.866;4.332;2023-07-31T02:45:06;17.50;99.90
24152;DHT22;12311;50.866;4.332;2023-07-31T02:47:32;17.50;99.90
24152;DHT22;12311;50.866;4.332;2023-07-31T02:49:58;17.50;99.90
24152;DHT22;12311;50.866;4.332;2023-07-31T02:52:25;17.50;99.90
24152;DHT22;12311;50.866;4.332;2023-07-31T02:54:50;17.50;99.90
24152;DHT22;12311;50.866;4.332;2023-07-31T02:57:16;17.60;99.90
24152;DHT22;12311;50.866;4.332;2023-07-31T02:59:42;17.50;99.90
24152;DHT22;12311;50.866;4.332;2023-07-31T03:02:07;17.50;99.90
24152;DHT22;12311;50.866;4.332;2023-07-31T03:04:33;17.50;99.90
24152;DHT22;12311;50.866;4.332;2023-07-31T03:06:59;17.40;99.90
24152;DHT22;12311;50.866;4.332;2023-07-31T03:09:24;17.40;99.90
24152;DHT22;12311;50.866;4.332;2023-07-31T03:11:50;17.40;99.90
24152;DHT22;12311;50.866;4.332;2023-07-31T03:14:16;17.40;99.90
24152;DHT22;12311;50.866;4.332;2023-07-31T03:16:41;17.40;99.90
24152;DHT22;12311;50.866;4.332;2023-07-31T03:19:07;17.40;99.90
24152;DHT22;12311;50.866;4.332;2023-07-31T03:21:32;17.30;99.90
24152;DHT22;12311;50.866;4.332;2023-07-31T03:23:58;17.30;99.90
24152;DHT22;12311;50.866;4.332;2023-07-31T03:26:24;17.30;99.90
24152;DHT22;12311;50.866;4.332;2023-07-31T03:28:49;17.30;99.90
24152;DHT22;12311;50.866;4.332;2023-07-31T03:31:15;17.20;99.90
24152;DHT22;12311;50.866;4.332;2023-07-31T03:33:41;17.20;99.90
24152;DHT22;12311;50.866;4.332;2023-07-31T03:36:07;17.10;99.90
24152;DHT22;12311;50.866;4.332;2023-07-31T03:38:34;17.10;99.90
24152;DHT22;12311;50.866;4.332;2023-07-31T03:41:00;17.00;99.90
24152;DHT22;12311;50.866;4.332;2023-07-31T03:43:25;17.00;99.90
24152;DHT22;12311;50.866;4.332;2023-07-31T03:45:51;16.90;99.90
24152;DHT22;12311;50.866;4.332;2023-07-31T03:48:17;17.00;99.90
24152;DHT22;12311;50.866;4.332;2023-07-31T03:50:43;17.00;99.90
24152;DHT22;12311;50.866;4.332;2023-07-31T03:53:08;17.00;99.90
24152;DHT22;12311;50.866;4.332;2023-07-31T03:55:34;17.00;99.90
24152;DHT22;12311;50.866;4.332;2023-07-31T03:57:59;16.90;99.90
24152;DHT22;12311;50.866;4.332;2023-07-31T04:00:26;16.90;99.90
24152;DHT22;12311;50.866;4.332;2023-07-31T04:02:52;16.90;99.90
24152;DHT22;12311;50.866;4.332;2023-07-31T04:05:18;16.80;99.90
24152;DHT22;12311;50.866;4.332;2023-07-31T04:07:44;16.80;99.90
24152;DHT22;12311;50.866;4.332;2023-07-31T04:10:09;16.80;99.90
24152;DHT22;12311;50.866;4.332;2023-07-31T04:12:35;16.80;99.90
24152;DHT22;12311;50.866;4.332;2023-07-31T04:15:01;16.80;99.90
24152;DHT22;12311;50.866;4.332;2023-07-31T04:17:26;16.80;99.90
24152;DHT22;12311;50.866;4.332;2023-07-31T04:19:52;16.80;99.90
24152;DHT22;12311;50.866;4.332;2023-07-31T04:22:18;16.80;99.90
24152;DHT22;12311;50.866;4.332;2023-07-31T04:24:43;16.70;99.90
24152;DHT22;12311;50.866;4.332;2023-07-31T04:27:09;16.80;99.90
24152;DHT22;12311;50.866;4.332;2023-07-31T04:29:34;16.70;99.90
24152;DHT22;12311;50.866;4.332;2023-07-31T04:32:00;16.80;99.90
24152;DHT22;12311;50.866;4.332;2023-07-31T04:34:26;16.80;99.90
24152;DHT22;12311;50.866;4.332;2023-07-31T04:36:51;16.80;99.90
24152;DHT22;12311;50.866;4.332;2023-07-31T04:39:17;16.80;99.90
24152;DHT22;12311;50.866;4.332;2023-07-31T04:41:43;16.80;99.90
24152;DHT22;12311;50.866;4.332;2023-07-31T04:44:08;16.80;99.90
24152;DHT22;12311;50.866;4.332;2023-07-31T04:46:36;16.90;99.90
24152;DHT22;12311;50.866;4.332;2023-07-31T04:49:02;16.90;99.90
24152;DHT22;12311;50.866;4.332;2023-07-31T04:51:28;16.90;99.90
24152;DHT22;12311;50.866;4.332;2023-07-31T04:53:54;16.90;99.90
24152;DHT22;12311;50.866;4.332;2023-07-31T04:56:19;16.90;99.90
24152;DHT22;12311;50.866;4.332;2023-07-31T04:58:45;16.90;99.90
24152;DHT22;12311;50.866;4.332;2023-07-31T05:01:11;16.90;99.90
24152;DHT22;12311;50.866;4.332;2023-07-31T05:03:36;16.90;99.90
24152;DHT22;12311;50.866;4.332;2023-07-31T05:06:02;16.90;99.90
24152;DHT22;12311;50.866;4.332;2023-07-31T05:08:27;16.80;99.90
24152;DHT22;12311;50.866;4.332;2023-07-31T05:10:53;16.80;99.90
24152;DHT22;12311;50.866;4.332;2023-07-31T05:13:19;16.70;99.90
24152;DHT22;12311;50.866;4.332;2023-07-31T05:15:45;16.60;99.90
24152;DHT22;12311;50.866;4.332;2023-07-31T05:18:11;16.60;99.90
24152;DHT22;12311;50.866;4.332;2023-07-31T05:20:36;16.60;99.90
24152;DHT22;12311;50.866;4.332;2023-07-31T05:23:02;16.50;99.90
24152;DHT22;12311;50.866;4.332;2023-07-31T05:25:28;16.40;99.90
24152;DHT22;12311;50.866;4.332;2023-07-31T05:27:53;16.50;99.90
24152;DHT22;12311;50.866;4.332;2023-07-31T05:30:19;16.40;99.90
24152;DHT22;12311;50.866;4.332;2023-07-31T05:32:46;16.40;99.90
24152;DHT22;12311;50.866;4.332;2023-07-31T05:35:12;16.40;99.90
24152;DHT22;12311;50.866;4.332;2023-07-31T05:37:38;16.40;99.90
24152;DHT22;12311;50.866;4.332;2023-07-31T05:40:04;16.40;99.90
24152;DHT22;12311;50.866;4.332;2023-07-31T05:42:30;16.40;99.90
24152;DHT22;12311;50.866;4.332;2023-07-31T05:44:55;16.40;99.90
24152;DHT22;12311;50.866;4.332;2023-07-31T05:47:21;16.40;99.90
24152;DHT22;12311;50.866;4.332;2023-07-31T05:49:48;16.40;99.90
24152;DHT22;12311;50.866;4.332;2023-07-31T05:52:14;16.50;99.90
24152;DHT22;12311;50.866;4.332;2023-07-31T05:54:41;16.40;99.90
24152;DHT22;12311;50.866;4.332;2023-07-31T05:57:07;16.50;99.90
24152;DHT22;12311;50.866;4.332;2023-07-31T05:59:32;16.50;99.90
24152;DHT22;12311;50.866;4.332;2023-07-31T06:01:58;16.50;99.90
24152;DHT22;12311;50.866;4.332;2023-07-31T06:04:24;16.60;99.90
24152;DHT22;12311;50.866;4.332;2023-07-31T06:06:51;16.60;99.90
24152;DHT22;12311;50.866;4.332;2023-07-31T06:09:17;16.60;99.90
24152;DHT22;12311;50.866;4.332;2023-07-31T06:11:42;16.60;99.90
24152;DHT22;12311;50.866;4.332;2023-07-31T06:14:08;16.60;99.90
24152;DHT22;12311;50.866;4.332;2023-07-31T06:16:34;16.60;99.90
24152;DHT22;12311;50.866;4.332;2023-07-31T06:19:00;16.70;99.90
24152;DHT22;12311;50.866;4.332;2023-07-31T06:21:26;16.70;99.90
24152;DHT22;12311;50.866;4.332;2023-07-31T06:23:51;16.70;99.90
24152;DHT22;12311;50.866;4.332;2023-07-31T06:26:17;16.80;99.90
24152;DHT22;12311;50.866;4.332;2023-07-31T06:28:43;16.70;99.90
24152;DHT22;12311;50.866;4.332;2023-07-31T06:31:09;16.80;99.90
24152;DHT22;12311;50.866;4.332;2023-07-31T06:33:34;16.80;99.90
24152;DHT22;12311;50.866;4.332;2023-07-31T06:36:00;16.80;99.90
24152;DHT22;12311;50.866;4.332;2023-07-31T06:38:26;16.80;99.90
24152;DHT22;12311;50.866;4.332;2023-07-31T06:40:52;16.80;99.90
24152;DHT22;12311;50.866;4.332;2023-07-31T06:43:18;16.90;99.90
24152;DHT22;12311;50.866;4.332;2023-07-31T06:45:44;16.90;99.90
24152;DHT22;12311;50.866;4.332;2023-07-31T06:48:11;17.00;99.90
24152;DHT22;12311;50.866;4.332;2023-07-31T06:50:36;17.00;99.90
24152;DHT22;12311;50.866;4.332;2023-07-31T06:53:02;17.10;99.90
24152;DHT22;12311;50.866;4.332;2023-07-31T06:55:28;17.10;99.90
24152;DHT22;12311;50.866;4.332;2023-07-31T06:57:55;17.20;99.90
24152;DHT22;12311;50.866;4.332;2023-07-31T07:00:22;17.20;99.90
24152;DHT22;12311;50.866;4.332;2023-07-31T07:02:48;17.30;99.90
24152;DHT22;12311;50.866;4.332;2023-07-31T07:05:16;17.40;99.90
24152;DHT22;12311;50.866;4.332;2023-07-31T07:07:42;17.50;99.90
24152;DHT22;12311;50.866;4.332;2023-07-31T07:10:07;17.50;99.90
24152;DHT22;12311;50.866;4.332;2023-07-31T07:12:34;17.60;99.90
24152;DHT22;12311;50.866;4.332;2023-07-31T07:15:00;17.60;99.90
24152;DHT22;12311;50.866;4.332;2023-07-31T07:17:28;17.70;99.90
24152;DHT22;12311;50.866;4.332;2023-07-31T07:19:55;17.80;99.90
24152;DHT22;12311;50.866;4.332;2023-07-31T07:22:21;17.80;99.90
24152;DHT22;12311;50.866;4.332;2023-07-31T07:24:47;17.90;99.90
24152;DHT22;12311;50.866;4.332;2023-07-31T07:27:12;17.80;99.90
24152;DHT22;12311;50.866;4.332;2023-07-31T07:29:38;17.70;99.90
24152;DHT22;12311;50.866;4.332;2023-07-31T07:32:04;17.70;99.90
24152;DHT22;12311;50.866;4.332;2023-07-31T07:34:30;17.70;99.90
24152;DHT22;12311;50.866;4.332;2023-07-31T07:36:56;17.70;99.90
24152;DHT22;12311;50.866;4.332;2023-07-31T07:39:22;17.70;99.90
24152;DHT22;12311;50.866;4.332;2023-07-31T07:41:47;17.70;99.90
24152;DHT22;12311;50.866;4.332;2023-07-31T07:44:13;17.80;99.90
24152;DHT22;12311;50.866;4.332;2023-07-31T07:46:39;17.80;99.90
24152;DHT22;12311;50.866;4.332;2023-07-31T07:49:05;17.70;99.90
24152;DHT22;12311;50.866;4.332;2023-07-31T07:51:31;17.60;99.90
24152;DHT22;12311;50.866;4.332;2023-07-31T07:53:57;17.70;99.90
24152;DHT22;12311;50.866;4.332;2023-07-31T07:56:25;17.70;99.90
24152;DHT22;12311;50.866;4.332;2023-07-31T07:58:50;17.70;99.90
24152;DHT22;12311;50.866;4.332;2023-07-31T08:01:16;17.80;99.90
24152;DHT22;12311;50.866;4.332;2023-07-31T08:03:42;17.90;99.90
24152;DHT22;12311;50.866;4.332;2023-07-31T08:06:08;17.90;99.90
24152;DHT22;12311;50.866;4.332;2023-07-31T08:08:35;18.00;99.90
24152;DHT22;12311;50.866;4.332;2023-07-31T08:11:01;18.00;99.90
24152;DHT22;12311;50.866;4.332;2023-07-31T08:13:26;18.00;99.90
24152;DHT22;12311;50.866;4.332;2023-07-31T08:15:52;18.00;99.90
24152;DHT22;12311;50.866;4.332;2023-07-31T08:18:18;18.10;99.90
24152;DHT22;12311;50.866;4.332;2023-07-31T08:20:44;18.20;99.90
24152;DHT22;12311;50.866;4.332;2023-07-31T08:23:10;18.10;99.90
24152;DHT22;12311;50.866;4.332;2023-07-31T08:25:36;18.20;99.90
24152;DHT22;12311;50.866;4.332;2023-07-31T08:28:03;18.00;99.90
24152;DHT22;12311;50.866;4.332;2023-07-31T08:30:28;18.00;99.90
24152;DHT22;12311;50.866;4.332;2023-07-31T08:32:54;17.80;99.90
24152;DHT22;12311;50.866;4.332;2023-07-31T08:35:20;17.70;99.90
24152;DHT22;12311;50.866;4.332;2023-07-31T08:37:45;17.70;99.90
24152;DHT22;12311;50.866;4.332;2023-07-31T08:40:11;17.80;99.90
24152;DHT22;12311;50.866;4.332;2023-07-31T08:42:44;17.80;99.90
24152;DHT22;12311;50.866;4.332;2023-07-31T08:45:14;17.90;99.90
24152;DHT22;12311;50.866;4.332;2023-07-31T08:47:44;17.80;99.90
24152;DHT22;12311;50.866;4.332;2023-07-31T08:50:12;17.80;99.90
24152;DHT22;12311;50.866;4.332;2023-07-31T08:52:38;17.90;99.90
24152;DHT22;12311;50.866;4.332;2023-07-31T08:55:05;17.80;99.90
24152;DHT22;12311;50.866;4.332;2023-07-31T08:57:32;17.70;99.90
24152;DHT22;12311;50.866;4.332;2023-07-31T09:00:00;17.80;99.90
24152;DHT22;12311;50.866;4.332;2023-07-31T09:02:31;17.90;99.90
24152;DHT22;12311;50.866;4.332;2023-07-31T09:04:57;18.00;99.90
24152;DHT22;12311;50.866;4.332;2023-07-31T09:07:24;17.90;99.90
24152;DHT22;12311;50.866;4.332;2023-07-31T09:09:49;18.00;99.90
24152;DHT22;12311;50.866;4.332;2023-07-31T09:12:15;18.00;99.90
24152;DHT22;12311;50.866;4.332;2023-07-31T09:14:42;18.20;99.90
24152;DHT22;12311;50.866;4.332;2023-07-31T09:17:09;18.20;99.90
24152;DHT22;12311;50.866;4.332;2023-07-31T09:19:36;18.20;99.90
24152;DHT22;12311;50.866;4.332;2023-07-31T09:22:05;18.20;99.90
24152;DHT22;12311;50.866;4.332;2023-07-31T09:24:32;18.40;99.90
24152;DHT22;12311;50.866;4.332;2023-07-31T09:27:00;18.30;99.90
24152;DHT22;12311;50.866;4.332;2023-07-31T09:29:27;18.50;99.90
24152;DHT22;12311;50.866;4.332;2023-07-31T09:31:54;18.70;99.90
24152;DHT22;12311;50.866;4.332;2023-07-31T09:34:20;18.80;99.90
24152;DHT22;12311;50.866;4.332;2023-07-31T09:36:53;18.80;99.90
24152;DHT22;12311;50.866;4.332;2023-07-31T09:39:19;18.60;99.90
24152;DHT22;12311;50.866;4.332;2023-07-31T09:41:48;18.40;99.90
24152;DHT22;12311;50.866;4.332;2023-07-31T09:44:18;18.40;99.90
24152;DHT22;12311;50.866;4.332;2023-07-31T09:46:44;18.40;99.90
24152;DHT22;12311;50.866;4.332;2023-07-31T09:49:11;18.30;99.90
24152;DHT22;12311;50.866;4.332;2023-07-31T09:51:40;18.20;99.90
24152;DHT22;12311;50.866;4.332;2023-07-31T09:54:13;18.10;99.90
24152;DHT22;12311;50.866;4.332;2023-07-31T09:56:47;18.00;99.90
24152;DHT22;12311;50.866;4.332;2023-07-31T09:59:19;17.90;99.90
24152;DHT22;12311;50.866;4.332;2023-07-31T10:01:46;17.80;99.90
24152;DHT22;12311;50.866;4.332;2023-07-31T10:04:13;17.60;99.90
24152;DHT22;12311;50.866;4.332;2023-07-31T10:06:40;17.60;99.90
24152;DHT22;12311;50.866;4.332;2023-07-31T10:09:09;17.60;99.90
24152;DHT22;12311;50.866;4.332;2023-07-31T10:11:59;17.60;99.90
24152;DHT22;12311;50.866;4.332;2023-07-31T10:14:26;17.70;99.90
24152;DHT22;12311;50.866;4.332;2023-07-31T10:16:53;17.80;99.90
24152;DHT22;12311;50.866;4.332;2023-07-31T10:19:20;17.80;99.90
24152;DHT22;12311;50.866;4.332;2023-07-31T10:21:46;18.00;99.90
24152;DHT22;12311;50.866;4.332;2023-07-31T10:24:15;18.10;99.90
24152;DHT22;12311;50.866;4.332;2023-07-31T10:26:41;18.30;99.90
24152;DHT22;12311;50.866;4.332;2023-07-31T10:29:11;18.30;99.90
24152;DHT22;12311;50.866;4.332;2023-07-31T10:31:37;18.50;99.90
24152;DHT22;12311;50.866;4.332;2023-07-31T10:34:04;18.30;99.90
24152;DHT22;12311;50.866;4.332;2023-07-31T10:36:29;18.30;99.90
24152;DHT22;12311;50.866;4.332;2023-07-31T10:38:58;18.40;99.90
24152;DHT22;12311;50.866;4.332;2023-07-31T10:41:30;18.40;99.90
24152;DHT22;12311;50.866;4.332;2023-07-31T10:44:00;18.40;99.90
24152;DHT22;12311;50.866;4.332;2023-07-31T10:46:28;18.70;99.90
24152;DHT22;12311;50.866;4.332;2023-07-31T10:48:58;18.90;99.90
24152;DHT22;12311;50.866;4.332;2023-07-31T10:51:32;18.90;99.90
24152;DHT22;12311;50.866;4.332;2023-07-31T10:54:13;18.90;99.90
24152;DHT22;12311;50.866;4.332;2023-07-31T10:56:40;19.00;99.90
24152;DHT22;12311;50.866;4.332;2023-07-31T10:59:09;19.10;99.90
24152;DHT22;12311;50.866;4.332;2023-07-31T11:01:54;19.20;99.90
24152;DHT22;12311;50.866;4.332;2023-07-31T11:04:24;19.20;99.90
24152;DHT22;12311;50.866;4.332;2023-07-31T11:07:01;19.20;99.90
24152;DHT22;12311;50.866;4.332;2023-07-31T11:09:29;19.40;99.90
24152;DHT22;12311;50.866;4.332;2023-07-31T11:11:56;19.50;99.90
24152;DHT22;12311;50.866;4.332;2023-07-31T11:14:22;19.60;99.90
24152;DHT22;12311;50.866;4.332;2023-07-31T11:16:50;19.80;99.90
24152;DHT22;12311;50.866;4.332;2023-07-31T11:19:22;19.90;99.90
24152;DHT22;12311;50.866;4.332;2023-07-31T11:21:49;19.90;99.90
24152;DHT22;12311;50.866;4.332;2023-07-31T11:24:14;20.00;99.90
24152;DHT22;12311;50.866;4.332;2023-07-31T11:26:51;19.90;99.90
24152;DHT22;12311;50.866;4.332;2023-07-31T11:29:18;19.80;99.90
24152;DHT22;12311;50.866;4.332;2023-07-31T11:31:44;19.80;99.90
24152;DHT22;12311;50.866;4.332;2023-07-31T11:34:10;19.60;99.90
24152;DHT22;12311;50.866;4.332;2023-07-31T11:36:36;19.50;99.90
24152;DHT22;12311;50.866;4.332;2023-07-31T11:39:08;19.30;99.90
24152;DHT22;12311;50.866;4.332;2023-07-31T11:41:34;19.30;99.90
24152;DHT22;12311;50.866;4.332;2023-07-31T11:44:00;19.40;99.90
24152;DHT22;12311;50.866;4.332;2023-07-31T11:46:26;19.40;99.90
24152;DHT22;12311;50.866;4.332;2023-07-31T11:48:52;19.40;99.90
24152;DHT22;12311;50.866;4.332;2023-07-31T11:51:24;19.30;99.90
24152;DHT22;12311;50.866;4.332;2023-07-31T11:53:58;19.40;99.90
24152;DHT22;12311;50.866;4.332;2023-07-31T11:56:25;19.30;99.90
24152;DHT22;12311;50.866;4.332;2023-07-31T11:58:57;19.30;99.90
24152;DHT22;12311;50.866;4.332;2023-07-31T12:01:24;19.30;99.90
24152;DHT22;12311;50.866;4.332;2023-07-31T12:03:50;19.40;99.90
24152;DHT22;12311;50.866;4.332;2023-07-31T12:06:17;19.60;99.90
24152;DHT22;12311;50.866;4.332;2023-07-31T12:08:43;19.70;99.90
24152;DHT22;12311;50.866;4.332;2023-07-31T12:11:09;19.80;99.90
24152;DHT22;12311;50.866;4.332;2023-07-31T12:13:35;19.90;99.90
24152;DHT22;12311;50.866;4.332;2023-07-31T12:16:02;20.00;99.90
24152;DHT22;12311;50.866;4.332;2023-07-31T12:18:30;19.90;99.90
24152;DHT22;12311;50.866;4.332;2023-07-31T12:20:58;19.80;99.90
24152;DHT22;12311;50.866;4.332;2023-07-31T12:23:32;19.80;99.90
24152;DHT22;12311;50.866;4.332;2023-07-31T12:28:50;19.90;99.90
24152;DHT22;12311;50.866;4.332;2023-07-31T12:31:23;20.10;99.90
24152;DHT22;12311;50.866;4.332;2023-07-31T12:33:53;20.20;99.90
24152;DHT22;12311;50.866;4.332;2023-07-31T12:36:24;20.40;99.90
24152;DHT22;12311;50.866;4.332;2023-07-31T12:38:50;20.50;99.90
24152;DHT22;12311;50.866;4.332;2023-07-31T12:41:16;20.60;99.90
24152;DHT22;12311;50.866;4.332;2023-07-31T12:43:45;20.50;99.90
24152;DHT22;12311;50.866;4.332;2023-07-31T12:46:11;20.50;99.90
24152;DHT22;12311;50.866;4.332;2023-07-31T12:48:38;20.50;99.90
24152;DHT22;12311;50.866;4.332;2023-07-31T12:51:05;20.70;99.90
24152;DHT22;12311;50.866;4.332;2023-07-31T12:53:32;20.60;99.90
24152;DHT22;12311;50.866;4.332;2023-07-31T12:55:58;20.60;99.90
24152;DHT22;12311;50.866;4.332;2023-07-31T12:58:24;20.60;99.90
24152;DHT22;12311;50.866;4.332;2023-07-31T13:00:50;20.60;99.90
24152;DHT22;12311;50.866;4.332;2023-07-31T13:03:15;20.50;99.90
24152;DHT22;12311;50.866;4.332;2023-07-31T13:05:41;20.30;99.90
24152;DHT22;12311;50.866;4.332;2023-07-31T13:08:07;20.20;99.90
24152;DHT22;12311;50.866;4.332;2023-07-31T13:10:32;20.20;99.90
24152;DHT22;12311;50.866;4.332;2023-07-31T13:12:58;20.20;99.90
24152;DHT22;12311;50.866;4.332;2023-07-31T13:15:24;19.80;99.90
24152;DHT22;12311;50.866;4.332;2023-07-31T13:17:50;19.70;99.90
24152;DHT22;12311;50.866;4.332;2023-07-31T13:20:15;19.40;99.90
24152;DHT22;12311;50.866;4.332;2023-07-31T13:22:41;19.20;99.90
24152;DHT22;12311;50.866;4.332;2023-07-31T13:25:07;19.00;99.90
24152;DHT22;12311;50.866;4.332;2023-07-31T13:27:33;18.90;99.90
24152;DHT22;12311;50.866;4.332;2023-07-31T13:29:59;18.70;99.90
24152;DHT22;12311;50.866;4.332;2023-07-31T13:32:25;18.50;99.90
24152;DHT22;12311;50.866;4.332;2023-07-31T13:34:51;18.40;99.90
24152;DHT22;12311;50.866;4.332;2023-07-31T13:37:17;18.30;99.90
24152;DHT22;12311;50.866;4.332;2023-07-31T13:39:43;18.20;99.90
24152;DHT22;12311;50.866;4.332;2023-07-31T13:42:09;18.10;99.90
24152;DHT22;12311;50.866;4.332;2023-07-31T13:44:41;18.00;99.90
24152;DHT22;12311;50.866;4.332;2023-07-31T13:47:08;18.00;99.90
24152;DHT22;12311;50.866;4.332;2023-07-31T13:49:35;18.00;99.90
24152;DHT22;12311;50.866;4.332;2023-07-31T13:52:02;18.00;99.90
24152;DHT22;12311;50.866;4.332;2023-07-31T13:54:28;17.90;99.90
24152;DHT22;12311;50.866;4.332;2023-07-31T13:56:54;17.90;99.90
24152;DHT22;12311;50.866;4.332;2023-07-31T13:59:20;17.90;99.90
24152;DHT22;12311;50.866;4.332;2023-07-31T14:01:46;17.90;99.90
24152;DHT22;12311;50.866;4.332;2023-07-31T14:04:13;17.90;99.90
24152;DHT22;12311;50.866;4.332;2023-07-31T14:06:39;17.90;99.90
24152;DHT22;12311;50.866;4.332;2023-07-31T14:09:05;18.00;99.90
24152;DHT22;12311;50.866;4.332;2023-07-31T14:11:31;17.90;99.90
24152;DHT22;12311;50.866;4.332;2023-07-31T14:13:58;17.90;99.90
24152;DHT22;12311;50.866;4.332;2023-07-31T14:16:24;18.00;99.90
24152;DHT22;12311;50.866;4.332;2023-07-31T14:18:50;18.00;99.90
24152;DHT22;12311;50.866;4.332;2023-07-31T14:21:15;18.00;99.90
24152;DHT22;12311;50.866;4.332;2023-07-31T14:23:41;18.00;99.90
24152;DHT22;12311;50.866;4.332;2023-07-31T14:26:07;17.90;99.90
24152;DHT22;12311;50.866;4.332;2023-07-31T14:28:33;17.90;99.90
24152;DHT22;12311;50.866;4.332;2023-07-31T14:30:59;17.90;99.90
24152;DHT22;12311;50.866;4.332;2023-07-31T14:33:25;17.90;99.90
24152;DHT22;12311;50.866;4.332;2023-07-31T14:35:54;17.90;99.90
24152;DHT22;12311;50.866;4.332;2023-07-31T14:38:19;17.90;99.90
24152;DHT22;12311;50.866;4.332;2023-07-31T14:40:45;17.90;99.90
24152;DHT22;12311;50.866;4.332;2023-07-31T14:43:11;17.90;99.90
24152;DHT22;12311;50.866;4.332;2023-07-31T14:45:37;17.80;99.90
24152;DHT22;12311;50.866;4.332;2023-07-31T14:48:02;17.80;99.90
24152;DHT22;12311;50.866;4.332;2023-07-31T14:50:28;17.90;99.90
24152;DHT22;12311;50.866;4.332;2023-07-31T14:52:54;17.80;99.90
24152;DHT22;12311;50.866;4.332;2023-07-31T14:55:20;17.90;99.90
24152;DHT22;12311;50.866;4.332;2023-07-31T14:57:46;17.90;99.90
24152;DHT22;12311;50.866;4.332;2023-07-31T15:00:12;17.80;99.90
24152;DHT22;12311;50.866;4.332;2023-07-31T15:02:38;17.80;99.90
24152;DHT22;12311;50.866;4.332;2023-07-31T15:05:05;17.80;99.90
24152;DHT22;12311;50.866;4.332;2023-07-31T15:07:31;17.80;99.90
24152;DHT22;12311;50.866;4.332;2023-07-31T15:09:57;17.80;99.90
24152;DHT22;12311;50.866;4.332;2023-07-31T15:12:23;17.80;99.90
24152;DHT22;12311;50.866;4.332;2023-07-31T15:14:49;17.80;99.90
24152;DHT22;12311;50.866;4.332;2023-07-31T15:17:15;17.70;99.90
24152;DHT22;12311;50.866;4.332;2023-07-31T15:19:41;17.80;99.90
24152;DHT22;12311;50.866;4.332;2023-07-31T15:22:07;17.70;99.90
24152;DHT22;12311;50.866;4.332;2023-07-31T15:24:33;17.70;99.90
24152;DHT22;12311;50.866;4.332;2023-07-31T15:26:59;17.80;99.90
24152;DHT22;12311;50.866;4.332;2023-07-31T15:29:27;17.80;99.90
24152;DHT22;12311;50.866;4.332;2023-07-31T15:31:53;17.80;99.90
24152;DHT22;12311;50.866;4.332;2023-07-31T15:34:18;17.80;99.90
24152;DHT22;12311;50.866;4.332;2023-07-31T15:36:44;17.80;99.90